Time;durP1;ratioP1;P1;durP2;ratioP2;P2;SDS_P1;SDS_P2;PMS_P1;PMS_P2;Temp;Humidity;BMP_temperature;BMP_pressure;BME280_temperature;BME280_humidity;BME280_pressure;Samples;Min_cycle;Max_cycle;Signal;HPM_P1;HPM_P2
2022/01/26 00:07:55;;;;;;;47.47;18.03;;;1.70;98.00;;;;;;5042325;28;20589;-46
2022/01/26 00:10:24;;;;;;;61.70;22.17;;;1.70;98.00;;;;;;5041346;28;20489;-45
2022/01/26 00:12:51;;;;;;;52.87;21.50;;;1.80;97.90;;;;;;5042224;28;20492;-46
2022/01/26 00:15:17;;;;;;;64.33;21.40;;;1.80;97.80;;;;;;5037138;28;20481;-46
2022/01/26 00:17:44;;;;;;;54.20;19.53;;;1.80;97.70;;;;;;5043219;28;20470;-46
2022/01/26 00:20:18;;;;;;;63.53;22.87;;;1.80;97.60;;;;;;5044135;28;20527;-45
2022/01/26 00:23:00;;;;;;;42.97;16.50;;;1.80;97.50;;;;;;5020565;28;20509;-46
2022/01/26 00:25:39;;;;;;;67.37;22.50;;;1.70;97.50;;;;;;5046338;28;20479;-46
2022/01/26 00:28:31;;;;;;;49.73;19.93;;;1.50;97.60;;;;;;5064942;28;21391;-46
2022/01/26 00:39:10;;;;;;;52.93;21.47;;;1.40;97.90;;;;;;5043956;28;20480;-46
2022/01/26 00:41:40;;;;;;;41.87;15.43;;;1.50;97.90;;;;;;5044331;28;20627;-46
2022/01/26 00:44:08;;;;;;;38.93;17.40;;;1.60;97.90;;;;;;5020474;28;20536;-46
2022/01/26 00:46:36;;;;;;;48.97;17.53;;;1.60;97.80;;;;;;5051507;28;20522;-46
2022/01/26 00:49:03;;;;;;;44.23;17.13;;;1.70;97.70;;;;;;5033009;28;20660;-46
2022/01/26 00:51:30;;;;;;;39.00;15.07;;;1.80;97.60;;;;;;5032680;28;20851;-46
2022/01/26 00:54:02;;;;;;;46.80;17.37;;;1.80;97.60;;;;;;5030902;28;20554;-45
2022/01/26 00:56:29;;;;;;;51.03;18.27;;;1.80;97.50;;;;;;5038679;28;20479;-46
2022/01/26 00:58:58;;;;;;;53.40;19.77;;;1.80;97.50;;;;;;5036949;28;21379;-46
2022/01/26 01:01:24;;;;;;;47.63;17.87;;;1.80;97.40;;;;;;5038728;28;20484;-46
2022/01/26 01:03:51;;;;;;;42.27;17.30;;;1.80;97.30;;;;;;5029162;28;20487;-45
2022/01/26 01:06:23;;;;;;;45.97;18.33;;;1.70;97.40;;;;;;5018388;28;20794;-46
2022/01/26 01:08:50;;;;;;;54.67;19.47;;;1.80;97.50;;;;;;5039299;28;20527;-46
2022/01/26 01:11:18;;;;;;;43.07;21.07;;;1.80;97.50;;;;;;5028896;28;20479;-46
2022/01/26 01:13:45;;;;;;;118.67;27.37;;;1.80;97.40;;;;;;5029329;28;20481;-46
2022/01/26 01:16:17;;;;;;;133.60;27.17;;;1.80;97.40;;;;;;5033361;28;21239;-46
2022/01/26 01:18:50;;;;;;;137.93;30.33;;;1.60;97.40;;;;;;5028593;28;20469;-47
2022/01/26 01:27:18;;;;;;;63.87;19.37;;;0.90;98.50;;;;;;5029910;28;20625;-44
2022/01/26 01:29:56;;;;;;;52.33;18.13;;;1.00;99.10;;;;;;5036259;28;20488;-44
2022/01/26 01:32:31;;;;;;;54.70;19.87;;;1.00;98.90;;;;;;5020938;28;20827;-45
2022/01/26 01:35:00;;;;;;;70.07;25.90;;;1.10;98.80;;;;;;5025172;28;20485;-44
2022/01/26 01:37:26;;;;;;;73.97;25.80;;;1.20;98.50;;;;;;5029695;28;21702;-44
2022/01/26 01:39:53;;;;;;;70.17;21.90;;;1.00;98.30;;;;;;5033936;28;20489;-44
2022/01/26 01:42:20;;;;;;;85.73;27.10;;;1.00;98.70;;;;;;5027797;28;20490;-44
2022/01/26 01:44:46;;;;;;;73.40;27.87;;;0.90;98.70;;;;;;5034193;28;20482;-44
2022/01/26 01:47:13;;;;;;;119.70;35.50;;;0.80;98.70;;;;;;5038017;28;21276;-45
2022/01/26 01:49:41;;;;;;;68.77;22.40;;;0.70;99.00;;;;;;5055978;28;20892;-44
2022/01/26 01:52:13;;;;;;;76.70;22.57;;;0.80;99.10;;;;;;5060661;28;20488;-43
2022/01/26 01:54:41;;;;;;;76.53;22.93;;;0.90;99.20;;;;;;5053602;28;20587;-44
2022/01/26 01:57:08;;;;;;;75.73;22.57;;;1.00;98.90;;;;;;5059845;28;20482;-44
2022/01/26 01:59:35;;;;;;;80.47;26.40;;;1.10;98.80;;;;;;5059599;28;20485;-45
2022/01/26 02:02:03;;;;;;;66.43;21.80;;;1.10;98.50;;;;;;5068724;28;20991;-45
2022/01/26 02:04:30;;;;;;;154.80;34.07;;;1.10;98.40;;;;;;5049048;28;20898;-45
2022/01/26 02:06:58;;;;;;;76.70;26.17;;;1.00;98.50;;;;;;5056838;28;20481;-45
2022/01/26 02:09:24;;;;;;;81.20;25.60;;;1.00;98.60;;;;;;5061860;28;20474;-46
2022/01/26 02:11:55;;;;;;;81.07;26.40;;;1.00;98.60;;;;;;5061375;28;20485;-45
2022/01/26 02:14:27;;;;;;;87.70;26.40;;;1.00;98.60;;;;;;5056084;28;20601;-45
2022/01/26 02:17:04;;;;;;;99.80;26.47;;;1.10;98.70;;;;;;5046975;28;20475;-45
2022/01/26 02:50:11;;;;;;;98.37;22.80;;;1.00;98.30;;;;;;5060337;28;20550;-46
2022/01/26 02:52:59;;;;;;;111.77;25.00;;;1.00;98.50;;;;;;5064336;28;20564;-46
2022/01/26 02:55:37;;;;;;;82.63;21.77;;;1.10;98.60;;;;;;5054547;28;20626;-47
2022/01/26 02:58:41;;;;;;;136.43;29.90;;;1.10;98.30;;;;;;5057658;28;20479;-47
2022/01/26 03:01:34;;;;;;;173.43;31.67;;;;;;;;;;5046632;28;20486;-46
2022/01/26 03:04:08;;;;;;;193.57;29.53;;;;;;;;;;5059540;28;20490;-44
2022/01/26 03:06:42;;;;;;;361.57;101.97;;;;;;;;;;5054435;28;20476;-45
2022/01/26 03:09:12;;;;;;;94.17;24.77;;;1.30;98.20;;;;;;5038091;28;20486;-45
2022/01/26 03:11:43;;;;;;;66.27;23.00;;;1.30;98.20;;;;;;5031165;28;20578;-45
2022/01/26 03:14:19;;;;;;;105.37;27.23;;;1.40;98.30;;;;;;5029936;28;20904;-45
2022/01/26 03:16:51;;;;;;;69.77;20.53;;;1.40;98.20;;;;;;5033031;28;20561;-45
2022/01/26 03:19:22;;;;;;;169.27;36.00;;;1.50;98.10;;;;;;5031599;28;20490;-45
2022/01/26 03:22:13;;;;;;;91.20;22.90;;;;;;;;;;5040222;28;21667;-44
2022/01/26 03:30:27;;;;;;;187.13;32.47;;;1.40;97.80;;;;;;5036986;28;21012;-45
2022/01/26 03:33:10;;;;;;;131.17;26.70;;;;;;;;;;5032532;28;20498;-45
2022/01/26 03:35:43;;;;;;;214.90;32.23;;;;;;;;;;5051084;28;20481;-45
2022/01/26 03:38:18;;;;;;;124.77;25.57;;;1.40;98.00;;;;;;5065374;28;20962;-46
2022/01/26 03:40:46;;;;;;;97.07;24.57;;;;;;;;;;5058205;28;20480;-45
2022/01/26 03:43:14;;;;;;;191.87;37.23;;;1.50;98.00;;;;;;5046986;28;20577;-46
2022/01/26 03:45:40;;;;;;;74.50;21.43;;;1.50;98.00;;;;;;5063788;28;20542;-45
2022/01/26 03:48:07;;;;;;;149.70;34.57;;;1.40;98.10;;;;;;5066229;28;20488;-53
2022/01/26 03:50:34;;;;;;;68.20;20.13;;;1.50;98.20;;;;;;5065236;28;20606;-55
2022/01/26 03:53:01;;;;;;;200.30;27.73;;;;;;;;;;5061721;28;20493;-44
2022/01/26 03:55:28;;;;;;;344.07;129.63;;;;;;;;;;5070581;28;20483;-45
2022/01/26 03:57:55;;;;;;;76.70;20.10;;;1.60;98.00;;;;;;5065135;28;20476;-45
2022/01/26 04:00:23;;;;;;;45.23;15.60;;;1.50;98.10;;;;;;5058295;28;20575;-45
2022/01/26 04:02:50;;;;;;;124.50;25.43;;;;;;;;;;5062582;28;20502;-46
2022/01/26 04:05:17;;;;;;;102.13;27.67;;;2.80;98.90;;;;;;5044703;28;20486;-46
2022/01/26 04:07:44;;;;;;;64.67;20.13;;;1.40;98.30;;;;;;5079014;28;20474;-46
2022/01/26 04:10:20;;;;;;;91.80;25.13;;;1.40;98.40;;;;;;5066374;28;20482;-45
2022/01/26 04:12:47;;;;;;;58.53;20.20;;;1.40;98.30;;;;;;5050256;28;21144;-46
2022/01/26 04:15:22;;;;;;;91.17;29.03;;;1.40;98.30;;;;;;5062000;28;21066;-45
2022/01/26 04:17:50;;;;;;;59.27;19.77;;;1.40;98.60;;;;;;5057573;28;20886;-45
2022/01/26 04:20:17;;;;;;;77.60;25.13;;;1.50;98.50;;;;;;5055587;28;20578;-45
2022/01/26 04:22:53;;;;;;;88.33;24.00;;;1.50;98.40;;;;;;5060336;28;20492;-45
2022/01/26 04:25:24;;;;;;;68.97;26.37;;;1.60;98.30;;;;;;5050455;28;20566;-45
2022/01/26 04:27:54;;;;;;;62.23;20.77;;;1.60;98.30;;;;;;5062736;28;20508;-45
2022/01/26 04:30:20;;;;;;;213.30;37.27;;;1.60;98.30;;;;;;5058067;28;20509;-45
2022/01/26 04:32:47;;;;;;;60.87;25.20;;;1.70;98.40;;;;;;5059180;28;20490;-45
2022/01/26 04:35:15;;;;;;;133.90;31.67;;;1.70;98.40;;;;;;5057819;28;21000;-45
2022/01/26 04:38:04;;;;;;;94.43;24.20;;;1.70;98.30;;;;;;5062673;28;20485;-45
2022/01/26 04:40:37;;;;;;;144.00;27.33;;;;;;;;;;5061779;28;20485;-46
2022/01/26 04:43:12;;;;;;;373.60;70.53;;;;;;;;;;5060015;28;20490;-45
2022/01/26 04:45:39;;;;;;;92.33;25.67;;;2.00;98.30;;;;;;5052236;28;20719;-46
2022/01/26 04:48:06;;;;;;;144.73;28.73;;;;;;;;;;5036833;28;20483;-45
2022/01/26 04:50:34;;;;;;;92.93;22.80;;;;;;;;;;5036355;28;20495;-46
2022/01/26 04:53:01;;;;;;;143.53;30.43;;;;;;;;;;5029364;28;20480;-45
2022/01/26 04:55:28;;;;;;;76.70;28.00;;;;;;;;;;5033829;28;20480;-46
2022/01/26 04:57:55;;;;;;;165.00;47.30;;;;;;;;;;5030394;28;20480;-45
2022/01/26 05:00:22;;;;;;;273.80;40.30;;;;;;;;;;5037390;28;20492;-46
2022/01/26 05:02:50;;;;;;;239.37;30.10;;;;;;;;;;5033658;28;20976;-45
2022/01/26 05:05:17;;;;;;;177.30;32.60;;;;;;;;;;5050525;28;20496;-45
2022/01/26 05:07:46;;;;;;;255.80;52.47;;;;;;;;;;5060139;28;20474;-45
2022/01/26 05:10:13;;;;;;;425.90;51.13;;;;;;;;;;5061020;28;20988;-48
2022/01/26 05:12:40;;;;;;;86.40;22.33;;;1.70;98.10;;;;;;5059901;28;20497;-46
2022/01/26 05:15:08;;;;;;;165.43;39.97;;;;;;;;;;5055116;28;20533;-45
2022/01/26 05:17:36;;;;;;;463.50;185.13;;;;;;;;;;5051474;28;20809;-45
2022/01/26 05:20:03;;;;;;;108.40;22.27;;;;;;;;;;5051261;28;20467;-45
2022/01/26 05:22:32;;;;;;;121.90;23.77;;;;;;;;;;5061542;28;20492;-46
2022/01/26 05:25:00;;;;;;;290.23;110.30;;;1.80;97.90;;;;;;5059781;28;22193;-45
2022/01/26 05:27:27;;;;;;;100.90;20.90;;;;;;;;;;5052719;28;20877;-45
2022/01/26 05:29:54;;;;;;;391.83;134.60;;;;;;;;;;5061739;28;20484;-45
2022/01/26 05:32:21;;;;;;;133.50;29.73;;;1.60;98.00;;;;;;5057275;28;20553;-45
2022/01/26 05:34:47;;;;;;;73.50;21.20;;;1.60;98.10;;;;;;5066032;28;20490;-45
2022/01/26 05:37:14;;;;;;;134.30;25.53;;;;;;;;;;5057178;28;20538;-46
2022/01/26 05:39:41;;;;;;;74.13;16.90;;;1.50;98.30;;;;;;5058192;28;20486;-46
2022/01/26 05:42:10;;;;;;;71.60;22.53;;;1.50;98.40;;;;;;5063931;28;21240;-45
2022/01/26 05:44:37;;;;;;;68.50;20.20;;;1.50;98.30;;;;;;5059349;28;20482;-45
2022/01/26 05:47:06;;;;;;;62.37;21.73;;;1.50;98.50;;;;;;5058851;28;20500;-45
2022/01/26 05:49:33;;;;;;;173.23;24.33;;;;;;;;;;5057511;28;21175;-45
2022/01/26 05:52:00;;;;;;;71.80;21.00;;;;;;;;;;5059032;28;20556;-45
2022/01/26 05:54:28;;;;;;;189.57;30.57;;;;;;;;;;5057080;28;21156;-45
2022/01/26 05:56:55;;;;;;;48.47;16.40;;;1.50;98.70;;;;;;5057374;28;20510;-46
2022/01/26 05:59:23;;;;;;;68.50;21.93;;;1.50;98.70;;;;;;5059912;28;20577;-45
2022/01/26 06:01:50;;;;;;;45.60;15.77;;;1.50;98.50;;;;;;5059204;28;20555;-45
2022/01/26 06:04:18;;;;;;;51.03;20.90;;;1.40;98.60;;;;;;5062183;28;20493;-46
2022/01/26 06:06:45;;;;;;;50.40;17.50;;;1.40;98.60;;;;;;5059785;28;20486;-46
2022/01/26 06:09:12;;;;;;;47.90;15.00;;;1.30;98.70;;;;;;5074624;28;20473;-46
2022/01/26 06:11:39;;;;;;;37.40;17.50;;;1.30;98.70;;;;;;5059427;28;20525;-45
2022/01/26 06:14:06;;;;;;;38.20;16.90;;;1.30;98.90;;;;;;5058900;28;20824;-45
2022/01/26 06:16:34;;;;;;;40.93;16.20;;;1.30;98.70;;;;;;5062342;28;20482;-45
2022/01/26 06:19:01;;;;;;;36.83;13.57;;;1.30;98.80;;;;;;5061259;28;20551;-45
2022/01/26 06:21:27;;;;;;;38.30;15.80;;;1.40;98.80;;;;;;5062955;28;20482;-45
2022/01/26 06:23:54;;;;;;;40.83;13.13;;;1.30;98.80;;;;;;5055694;28;20558;-45
2022/01/26 06:26:21;;;;;;;41.37;17.13;;;1.30;98.80;;;;;;5054795;28;20478;-46
2022/01/26 06:28:48;;;;;;;21.03;10.10;;;1.30;99.00;;;;;;5061552;28;20489;-46
2022/01/26 06:31:16;;;;;;;40.47;17.13;;;0.30;98.80;;;;;;5058250;28;20468;-46
2022/01/26 06:33:47;;;;;;;28.93;13.20;;;1.30;99.10;;;;;;5055824;28;20486;-45
2022/01/26 06:36:16;;;;;;;38.73;15.87;;;1.30;99.10;;;;;;5059273;28;20584;-46
2022/01/26 06:38:45;;;;;;;27.53;12.30;;;1.20;99.20;;;;;;5055175;28;20483;-45
2022/01/26 06:41:13;;;;;;;47.13;19.23;;;1.10;99.10;;;;;;5052792;28;20828;-49
2022/01/26 06:43:47;;;;;;;43.57;15.60;;;1.20;99.40;;;;;;5059272;28;20818;-45
2022/01/26 06:46:21;;;;;;;43.43;19.63;;;1.20;99.20;;;;;;5043206;28;20471;-46
2022/01/26 06:49:28;;;;;;;26.20;12.10;;;1.20;99.10;;;;;;5057859;28;20987;-45
2022/01/26 06:51:46;;;;;;;35.03;13.70;;;1.30;99.40;;;;;;5055782;28;20476;-46
2022/01/26 06:54:13;;;;;;;35.10;15.40;;;1.30;99.30;;;;;;5054531;28;21116;-50
2022/01/26 06:56:40;;;;;;;29.03;11.50;;;1.40;99.30;;;;;;5052852;28;20529;-45
2022/01/26 06:59:06;;;;;;;34.70;14.43;;;1.40;99.30;;;;;;5067005;28;21232;-45
2022/01/26 07:01:33;;;;;;;32.93;13.60;;;1.40;99.10;;;;;;5067701;28;20476;-46
2022/01/26 07:04:01;;;;;;;37.07;14.53;;;1.50;99.20;;;;;;5058091;28;20494;-45
2022/01/26 07:06:28;;;;;;;32.47;12.57;;;1.50;99.20;;;;;;5064122;28;20498;-45
2022/01/26 07:08:55;;;;;;;39.07;13.80;;;1.40;99.20;;;;;;5059275;28;20859;-46
2022/01/26 07:11:22;;;;;;;33.10;12.17;;;1.40;99.10;;;;;;5068158;28;20537;-45
2022/01/26 07:13:51;;;;;;;34.30;14.27;;;1.40;99.40;;;;;;5061609;28;20489;-46
2022/01/26 07:21:50;;;;;;;31.10;12.60;;;1.50;99.60;;;;;;5050433;28;20486;-45
2022/01/26 07:24:16;;;;;;;32.90;15.73;;;1.50;99.40;;;;;;5066183;28;21145;-46
2022/01/26 07:26:45;;;;;;;27.23;11.53;;;1.50;99.40;;;;;;5067689;28;20486;-45
2022/01/26 07:29:13;;;;;;;38.07;15.90;;;1.50;99.30;;;;;;5048389;28;20470;-45
2022/01/26 07:31:42;;;;;;;36.50;16.10;;;1.60;99.40;;;;;;5071709;28;20483;-46
2022/01/26 07:34:12;;;;;;;17.83;8.50;;;1.60;99.10;;;;;;5061506;28;21260;-46
2022/01/26 07:36:39;;;;;;;34.00;14.13;;;1.60;99.30;;;;;;5065137;28;20473;-45
2022/01/26 07:39:09;;;;;;;34.30;15.53;;;1.60;99.40;;;;;;5063450;28;20987;-45
2022/01/26 07:41:36;;;;;;;31.23;12.87;;;1.60;99.30;;;;;;5065406;28;20515;-45
2022/01/26 07:44:03;;;;;;;36.03;12.63;;;1.60;99.30;;;;;;5059103;28;20490;-45
2022/01/26 07:46:30;;;;;;;25.13;13.63;;;1.60;99.30;;;;;;5062085;28;20559;-46
2022/01/26 07:48:57;;;;;;;45.83;17.90;;;1.70;99.50;;;;;;5063711;28;20547;-45
2022/01/26 07:51:25;;;;;;;42.97;17.20;;;1.70;99.40;;;;;;5061108;28;20548;-46
2022/01/26 07:53:52;;;;;;;27.20;13.37;;;1.70;99.40;;;;;;5062478;28;20504;-46
2022/01/26 07:56:18;;;;;;;40.57;16.53;;;1.70;99.40;;;;;;5067351;28;20496;-45
2022/01/26 07:58:47;;;;;;;39.30;16.63;;;1.70;99.50;;;;;;5049357;28;20560;-45
2022/01/26 08:01:14;;;;;;;52.97;19.30;;;1.70;99.40;;;;;;5033536;28;21185;-46
2022/01/26 08:03:41;;;;;;;46.23;16.57;;;1.70;99.50;;;;;;5036632;28;20515;-46
2022/01/26 08:06:14;;;;;;;46.20;18.93;;;1.70;99.70;;;;;;5029052;28;20835;-45
2022/01/26 08:08:42;;;;;;;39.97;19.20;;;1.70;99.40;;;;;;5035518;28;20478;-46
2022/01/26 08:11:08;;;;;;;28.63;13.70;;;1.70;99.30;;;;;;5030814;28;20527;-46
2022/01/26 08:13:35;;;;;;;39.20;15.07;;;1.70;99.40;;;;;;5039100;28;20493;-45
2022/01/26 08:16:02;;;;;;;39.63;15.50;;;;;;;;;;5042466;28;20995;-46
2022/01/26 08:18:29;;;;;;;25.30;14.23;;;1.80;99.40;;;;;;5049416;28;20980;-45
2022/01/26 08:21:02;;;;;;;37.77;18.47;;;1.80;99.50;;;;;;5046139;28;20489;-45
2022/01/26 08:23:28;;;;;;;47.30;18.20;;;1.80;99.40;;;;;;5039932;28;20482;-45
2022/01/26 08:25:56;;;;;;;33.23;14.47;;;1.90;99.50;;;;;;5047048;28;20482;-45
2022/01/26 08:28:28;;;;;;;33.87;17.37;;;1.90;99.20;;;;;;5041954;28;20563;-45
2022/01/26 08:30:54;;;;;;;64.17;17.67;;;1.90;99.30;;;;;;5040864;28;20570;-45
2022/01/26 08:33:21;;;;;;;398.67;60.97;;;;;;;;;;5037361;28;20502;-44
2022/01/26 08:35:49;;;;;;;433.23;63.40;;;;;;;;;;5046234;28;20474;-44
2022/01/26 08:38:16;;;;;;;169.07;30.50;;;;;;;;;;5044660;28;20478;-45
2022/01/26 08:40:43;;;;;;;145.77;16.60;;;;;;;;;;5044375;28;20473;-45
2022/01/26 08:43:12;;;;;;;352.13;45.30;;;;;;;;;;5038667;28;20977;-45
2022/01/26 08:45:39;;;;;;;396.53;105.07;;;;;;;;;;5042887;28;20592;-45
2022/01/26 08:48:06;;;;;;;66.03;18.03;;;-1.20;97.80;;;;;;5043281;28;20613;-45
2022/01/26 08:50:34;;;;;;;53.63;17.80;;;1.80;99.40;;;;;;5043567;28;20561;-45
2022/01/26 08:53:01;;;;;;;56.97;21.27;;;1.70;99.30;;;;;;5048724;28;20478;-45
2022/01/26 08:55:28;;;;;;;34.00;16.70;;;1.80;99.60;;;;;;5051430;28;20534;-45
2022/01/26 08:57:54;;;;;;;34.80;14.83;;;1.80;99.50;;;;;;5042656;28;20541;-45
2022/01/26 09:00:22;;;;;;;43.87;18.13;;;1.80;99.40;;;;;;5050844;28;21018;-44
2022/01/26 09:02:51;;;;;;;35.93;17.47;;;1.90;99.60;;;;;;5057406;28;20909;-45
2022/01/26 09:05:17;;;;;;;37.80;17.40;;;1.80;99.30;;;;;;5058018;28;20507;-45
2022/01/26 09:07:45;;;;;;;36.83;14.93;;;1.90;99.30;;;;;;5046265;28;20943;-55
2022/01/26 09:10:12;;;;;;;36.00;16.23;;;1.90;99.20;;;;;;5044194;28;20906;-45
2022/01/26 09:12:42;;;;;;;29.47;15.03;;;1.90;99.20;;;;;;5043031;28;20991;-45
2022/01/26 09:15:10;;;;;;;28.43;12.77;;;2.00;99.00;;;;;;5037898;28;20793;-45
2022/01/26 09:17:38;;;;;;;18.83;11.90;;;2.00;99.00;;;;;;5032435;28;20470;-45
2022/01/26 09:20:07;;;;;;;22.80;9.87;;;1.90;98.80;;;;;;5072934;28;20481;-45
2022/01/26 09:22:34;;;;;;;21.03;11.67;;;1.90;98.80;;;;;;5041396;28;20484;-45
2022/01/26 09:25:01;;;;;;;21.47;10.90;;;2.00;99.00;;;;;;5035794;28;20849;-45
2022/01/26 09:27:28;;;;;;;28.47;13.70;;;2.00;98.70;;;;;;5041092;28;20493;-46
2022/01/26 09:29:54;;;;;;;22.73;12.93;;;2.00;98.80;;;;;;5044530;28;20487;-45
2022/01/26 09:32:21;;;;;;;29.73;14.03;;;2.00;98.90;;;;;;5054977;28;20581;-45
2022/01/26 09:34:49;;;;;;;23.37;12.40;;;2.10;98.80;;;;;;5051582;28;20493;-45
2022/01/26 09:37:17;;;;;;;35.60;13.50;;;2.10;98.70;;;;;;5058940;28;21043;-45
2022/01/26 09:39:46;;;;;;;23.03;10.80;;;2.00;98.30;;;;;;5065923;28;20476;-46
2022/01/26 09:42:13;;;;;;;19.90;9.90;;;1.90;98.70;;;;;;5060759;28;20495;-46
2022/01/26 09:44:40;;;;;;;13.80;7.47;;;1.80;98.70;;;;;;5054534;28;20538;-46
2022/01/26 09:47:07;;;;;;;27.57;12.90;;;1.70;98.90;;;;;;5060018;28;20482;-46
2022/01/26 09:49:35;;;;;;;19.67;6.77;;;1.70;98.90;;;;;;5061122;28;20546;-46
2022/01/26 09:52:07;;;;;;;15.40;8.10;;;1.70;98.80;;;;;;5065322;28;20568;-46
2022/01/26 09:54:34;;;;;;;23.50;11.53;;;1.60;98.80;;;;;;5057268;28;20525;-46
2022/01/26 09:57:03;;;;;;;26.10;11.27;;;1.70;98.80;;;;;;5061550;28;20972;-46
2022/01/26 09:59:31;;;;;;;24.73;10.20;;;1.60;98.70;;;;;;5059515;28;20985;-46
2022/01/26 10:01:59;;;;;;;11.27;6.37;;;1.60;98.90;;;;;;5073412;28;21943;-46
2022/01/26 10:04:29;;;;;;;25.17;10.03;;;1.60;99.00;;;;;;5054336;28;20477;-46
2022/01/26 10:07:14;;;;;;;24.73;11.70;;;1.70;99.00;;;;;;5060680;28;20589;-46
2022/01/26 10:10:03;;;;;;;28.57;13.23;;;1.70;98.90;;;;;;5057374;28;20641;-46
2022/01/26 10:15:31;;;;;;;32.03;12.97;;;1.70;98.80;;;;;;5054155;28;21121;-45
2022/01/26 10:18:08;;;;;;;27.60;12.53;;;1.80;98.90;;;;;;5057787;28;21069;-45
2022/01/26 10:20:46;;;;;;;24.90;10.30;;;1.90;99.00;;;;;;5051317;28;20483;-46
2022/01/26 10:23:17;;;;;;;27.00;12.63;;;1.90;98.80;;;;;;5049751;28;20494;-46
2022/01/26 10:25:46;;;;;;;23.43;13.03;;;1.90;98.60;;;;;;5077879;28;21201;-46
2022/01/26 10:28:15;;;;;;;27.13;15.00;;;1.90;98.50;;;;;;5059858;28;20481;-46
2022/01/26 10:30:47;;;;;;;25.23;12.13;;;2.00;98.50;;;;;;5059664;28;20559;-46
2022/01/26 10:33:16;;;;;;;22.40;10.77;;;2.00;98.40;;;;;;5053557;28;20493;-46
2022/01/26 10:35:42;;;;;;;19.13;8.30;;;1.90;98.10;;;;;;5056021;28;20482;-45
2022/01/26 10:38:09;;;;;;;28.60;12.57;;;1.90;98.20;;;;;;5058082;28;20478;-46
2022/01/26 10:40:40;;;;;;;27.70;13.27;;;1.90;98.30;;;;;;5060972;28;20473;-46
2022/01/26 10:43:10;;;;;;;31.60;15.10;;;2.00;98.50;;;;;;5062725;28;20531;-46
2022/01/26 10:45:54;;;;;;;27.30;13.43;;;2.00;98.40;;;;;;5062131;28;20476;-46
2022/01/26 10:48:28;;;;;;;29.33;15.67;;;2.00;98.30;;;;;;5062571;28;20531;-46
2022/01/26 10:54:10;;;;;;;18.87;12.23;;;2.00;98.30;;;;;;5043445;28;20582;-46
2022/01/26 10:56:40;;;;;;;28.03;13.73;;;1.90;98.20;;;;;;5023487;28;20475;-46
2022/01/26 10:59:06;;;;;;;25.37;12.30;;;2.00;98.70;;;;;;5045498;28;20483;-46
2022/01/26 11:01:36;;;;;;;28.70;13.10;;;2.00;98.60;;;;;;5065708;28;20482;-46
2022/01/26 11:04:03;;;;;;;17.30;10.00;;;2.00;98.20;;;;;;5053538;28;20727;-45
2022/01/26 11:06:30;;;;;;;33.27;17.17;;;2.00;98.40;;;;;;5065910;28;20476;-46
2022/01/26 11:09:01;;;;;;;30.20;15.20;;;1.90;98.40;;;;;;5055953;28;20508;-46
2022/01/26 11:11:28;;;;;;;27.93;14.70;;;1.90;98.50;;;;;;5044566;28;20820;-46
2022/01/26 11:13:56;;;;;;;25.43;14.37;;;1.90;98.40;;;;;;5041796;28;20477;-46
2022/01/26 11:16:23;;;;;;;29.43;13.80;;;1.90;98.40;;;;;;5043167;28;20847;-45
2022/01/26 11:18:51;;;;;;;24.57;13.10;;;2.00;98.30;;;;;;5041017;28;21126;-45
2022/01/26 11:21:30;;;;;;;20.70;10.53;;;2.00;98.30;;;;;;5045778;28;20489;-45
2022/01/26 11:24:09;;;;;;;25.13;13.60;;;2.00;98.50;;;;;;5038559;28;20855;-45
2022/01/26 11:26:38;;;;;;;27.27;12.60;;;2.00;98.30;;;;;;5044462;28;20987;-46
2022/01/26 11:29:15;;;;;;;35.10;17.30;;;2.00;98.60;;;;;;5057228;28;20548;-45
2022/01/26 11:31:42;;;;;;;24.60;14.83;;;2.00;98.60;;;;;;5066242;28;21217;-45
2022/01/26 11:34:11;;;;;;;32.80;15.40;;;2.10;98.60;;;;;;5056661;28;20470;-45
2022/01/26 11:36:40;;;;;;;30.17;14.27;;;2.20;98.40;;;;;;5061333;28;20483;-46
2022/01/26 11:45:04;;;;;;;31.33;15.50;;;2.30;98.20;;;;;;5042300;28;20475;-46
2022/01/26 11:47:32;;;;;;;29.97;13.50;;;2.20;98.20;;;;;;5042962;28;20481;-45
2022/01/26 11:50:06;;;;;;;25.77;14.60;;;2.10;98.00;;;;;;5044500;28;20477;-45
2022/01/26 11:52:37;;;;;;;32.10;13.40;;;2.10;98.10;;;;;;5041556;28;20470;-46
2022/01/26 11:55:09;;;;;;;26.80;13.10;;;2.10;98.00;;;;;;5042795;28;21318;-45
2022/01/26 11:57:49;;;;;;;26.93;13.00;;;2.10;98.10;;;;;;5056915;28;20472;-45
2022/01/26 12:00:36;;;;;;;26.50;14.60;;;2.10;98.10;;;;;;5052231;28;20488;-46
2022/01/26 12:03:08;;;;;;;32.47;15.10;;;2.20;98.20;;;;;;5044713;28;20490;-45
2022/01/26 12:05:45;;;;;;;31.70;14.10;;;2.30;98.30;;;;;;5041925;28;20519;-45
2022/01/26 12:08:12;;;;;;;35.30;14.90;;;2.30;98.20;;;;;;5061505;28;20462;-45
2022/01/26 12:10:39;;;;;;;28.60;14.53;;;2.30;98.20;;;;;;5064581;28;20933;-46
2022/01/26 12:13:08;;;;;;;26.87;14.73;;;2.30;98.00;;;;;;5063751;28;20485;-44
2022/01/26 12:15:44;;;;;;;15.20;8.80;;;2.20;97.90;;;;;;5051983;28;20513;-45
2022/01/26 12:18:24;;;;;;;25.10;8.90;;;2.10;97.90;;;;;;5052861;28;20942;-45
2022/01/26 12:32:47;;;;;;;23.33;9.73;;;2.00;98.20;;;;;;5062071;28;20985;-44
2022/01/26 12:38:07;;;;;;;34.87;12.30;;;2.00;98.60;;;;;;5039926;28;20474;-45
2022/01/26 12:43:33;;;;;;;16.97;9.50;;;2.00;98.30;;;;;;5041333;28;20473;-47
2022/01/26 12:46:00;;;;;;;22.20;9.53;;;1.90;98.30;;;;;;5042021;28;20485;-45
2022/01/26 12:48:29;;;;;;;32.57;14.07;;;1.90;98.40;;;;;;5044283;28;21071;-46
2022/01/26 12:50:58;;;;;;;18.97;9.97;;;1.90;98.40;;;;;;5048938;28;20886;-46
2022/01/26 12:53:27;;;;;;;29.97;12.73;;;1.90;98.30;;;;;;5032424;28;20527;-45
2022/01/26 12:55:56;;;;;;;26.03;13.87;;;1.90;98.40;;;;;;5042767;28;20479;-45
2022/01/26 12:58:28;;;;;;;32.77;20.07;;;1.90;98.40;;;;;;5042289;28;21045;-45
2022/01/26 13:01:00;;;;;;;39.67;18.90;;;2.00;98.40;;;;;;5043401;28;20517;-45
2022/01/26 13:03:31;;;;;;;34.93;16.87;;;2.00;98.20;;;;;;5039924;28;20472;-46
2022/01/26 13:06:06;;;;;;;30.03;18.23;;;2.10;98.20;;;;;;5040841;28;20486;-45
2022/01/26 13:08:44;;;;;;;28.50;14.50;;;2.10;98.00;;;;;;5043134;28;20530;-45
2022/01/26 13:11:11;;;;;;;38.73;16.03;;;2.10;98.20;;;;;;5041249;28;20536;-51
2022/01/26 13:13:38;;;;;;;31.10;14.30;;;2.10;98.30;;;;;;5039379;28;20472;-45
2022/01/26 13:16:16;;;;;;;44.90;17.30;;;2.20;98.20;;;;;;5042085;28;20478;-45
2022/01/26 13:21:56;;;;;;;29.90;13.70;;;2.30;98.10;;;;;;5059436;28;20504;-45
2022/01/26 13:24:37;;;;;;;32.97;13.50;;;2.20;98.00;;;;;;5027598;28;20575;-45
2022/01/26 13:27:16;;;;;;;37.90;14.50;;;2.30;98.10;;;;;;5061272;28;20474;-45
2022/01/26 13:29:56;;;;;;;31.27;15.30;;;2.20;98.00;;;;;;5051182;28;20485;-46
2022/01/26 13:35:30;;;;;;;35.43;16.53;;;2.30;98.00;;;;;;5050013;28;20495;-45
2022/01/26 13:38:14;;;;;;;27.10;12.93;;;2.40;97.90;;;;;;5050692;28;21038;-46
2022/01/26 13:40:53;;;;;;;32.30;13.30;;;2.40;97.80;;;;;;5033154;28;20660;-45
2022/01/26 13:46:39;;;;;;;33.30;14.70;;;2.50;97.80;;;;;;5038412;28;20477;-45
2022/01/26 13:49:32;;;;;;;35.57;15.57;;;2.50;97.80;;;;;;5063851;28;20473;-45
2022/01/26 13:52:18;;;;;;;31.67;17.23;;;2.40;97.70;;;;;;5061779;28;20477;-45
2022/01/26 13:55:00;;;;;;;30.87;15.47;;;2.30;97.70;;;;;;5034790;28;20517;-46
2022/01/26 13:57:44;;;;;;;29.63;14.70;;;2.20;97.80;;;;;;5042931;28;20493;-46
2022/01/26 14:00:14;;;;;;;26.50;15.80;;;2.20;97.80;;;;;;5060082;28;20485;-45
2022/01/26 14:02:41;;;;;;;41.03;15.83;;;2.20;97.80;;;;;;5053972;28;20488;-46
2022/01/26 14:05:10;;;;;;;40.57;18.10;;;2.10;97.80;;;;;;5054983;28;20480;-45
2022/01/26 14:07:38;;;;;;;26.90;14.83;;;2.10;97.80;;;;;;5058833;28;20481;-46
2022/01/26 14:10:05;;;;;;;29.00;14.30;;;2.10;97.90;;;;;;5057852;28;20495;-45
2022/01/26 14:12:37;;;;;;;31.43;15.40;;;2.20;98.00;;;;;;5061439;28;20483;-45
2022/01/26 14:15:07;;;;;;;33.53;15.40;;;2.20;98.00;;;;;;5058224;28;20494;-46
2022/01/26 14:17:42;;;;;;;40.57;19.00;;;2.30;97.90;;;;;;5053070;28;20925;-46
2022/01/26 14:20:17;;;;;;;27.20;13.57;;;2.20;97.70;;;;;;5058968;28;20485;-45
2022/01/26 14:25:33;;;;;;;28.90;13.40;;;2.10;97.90;;;;;;5055835;28;20548;-46
2022/01/26 14:28:04;;;;;;;27.20;11.97;;;2.10;98.10;;;;;;5060364;28;20483;-45
2022/01/26 14:30:39;;;;;;;32.03;16.40;;;2.00;98.30;;;;;;5057353;28;20496;-45
2022/01/26 14:36:06;;;;;;;23.13;12.40;;;2.10;98.30;;;;;;5029504;28;20475;-43
2022/01/26 14:55:29;;;;;;;40.40;20.70;;;1.70;98.40;;;;;;5059176;28;20496;-44
2022/01/26 15:01:09;;;;;;;25.93;13.50;;;1.70;99.00;;;;;;5063476;28;20482;-44
2022/01/26 15:18:58;;;;;;;35.20;18.77;;;1.80;98.80;;;;;;5047812;28;20484;-45
2022/01/26 15:32:27;;;;;;;52.33;23.53;;;1.60;99.10;;;;;;5036646;28;21224;-44
2022/01/26 15:34:43;;;;;;;44.93;20.90;;;1.70;99.10;;;;;;5049463;28;20477;-44